sensor_id;sensor_type;location;lat;lon;timestamp;pressure;altitude;pressure_sealevel;temperature;humidity
55540;BME280;41384;51.418;7.286;2022-08-01T00:01:34;99896.38;;;19.56;100.00
55540;BME280;41384;51.418;7.286;2022-08-01T00:04:00;99884.06;;;19.60;100.00
55540;BME280;41384;51.418;7.286;2022-08-01T00:06:25;99883.00;;;19.66;100.00
55540;BME280;41384;51.418;7.286;2022-08-01T00:08:50;99884.34;;;19.58;100.00
55540;BME280;41384;51.418;7.286;2022-08-01T00:11:16;99887.03;;;19.53;100.00
55540;BME280;41384;51.418;7.286;2022-08-01T00:13:41;99887.78;;;19.48;100.00
55540;BME280;41384;51.418;7.286;2022-08-01T00:16:07;99881.13;;;19.51;100.00
55540;BME280;41384;51.418;7.286;2022-08-01T00:18:32;99887.25;;;19.46;100.00
55540;BME280;41384;51.418;7.286;2022-08-01T00:20:57;99882.44;;;19.43;100.00
55540;BME280;41384;51.418;7.286;2022-08-01T00:23:23;99884.81;;;19.39;100.00
55540;BME280;41384;51.418;7.286;2022-08-01T00:25:48;99880.31;;;19.56;100.00
55540;BME280;41384;51.418;7.286;2022-08-01T00:28:14;99879.78;;;19.59;100.00
55540;BME280;41384;51.418;7.286;2022-08-01T00:30:39;99880.50;;;19.28;100.00
55540;BME280;41384;51.418;7.286;2022-08-01T00:33:04;99884.56;;;19.41;100.00
55540;BME280;41384;51.418;7.286;2022-08-01T00:35:30;99884.56;;;19.41;100.00
55540;BME280;41384;51.418;7.286;2022-08-01T00:37:55;99885.34;;;19.36;100.00
55540;BME280;41384;51.418;7.286;2022-08-01T00:40:21;99894.22;;;19.52;100.00
55540;BME280;41384;51.418;7.286;2022-08-01T00:42:47;99879.25;;;19.62;100.00
55540;BME280;41384;51.418;7.286;2022-08-01T00:45:12;99882.72;;;19.47;100.00
55540;BME280;41384;51.418;7.286;2022-08-01T00:47:38;99877.09;;;19.53;100.00
55540;BME280;41384;51.418;7.286;2022-08-01T00:50:04;99887.53;;;19.50;100.00
55540;BME280;41384;51.418;7.286;2022-08-01T00:52:29;99886.44;;;19.40;100.00
55540;BME280;41384;51.418;7.286;2022-08-01T00:54:55;99880.06;;;19.52;100.00
55540;BME280;41384;51.418;7.286;2022-08-01T00:57:20;99884.34;;;19.48;100.00
55540;BME280;41384;51.418;7.286;2022-08-01T00:59:46;99887.22;;;19.31;100.00
55540;BME280;41384;51.418;7.286;2022-08-01T01:02:11;99887.78;;;19.48;100.00
55540;BME280;41384;51.418;7.286;2022-08-01T01:04:37;99880.28;;;19.35;100.00
55540;BME280;41384;51.418;7.286;2022-08-01T01:07:17;99880.59;;;19.49;100.00
55540;BME280;41384;51.418;7.286;2022-08-01T01:09:58;99877.31;;;19.36;100.00
55540;BME280;41384;51.418;7.286;2022-08-01T01:15:36;99884.25;;;19.32;100.00
55540;BME280;41384;51.418;7.286;2022-08-01T01:18:20;99875.19;;;19.38;100.00
55540;BME280;41384;51.418;7.286;2022-08-01T01:26:45;99880.31;;;19.50;100.00
55540;BME280;41384;51.418;7.286;2022-08-01T01:29:25;99888.88;;;19.52;100.00
55540;BME280;41384;51.418;7.286;2022-08-01T01:31:57;99883.78;;;19.46;100.00
55540;BME280;41384;51.418;7.286;2022-08-01T01:34:23;99885.97;;;19.59;100.00
55540;BME280;41384;51.418;7.286;2022-08-01T01:36:50;99877.94;;;19.75;100.00
55540;BME280;41384;51.418;7.286;2022-08-01T01:39:17;99879.25;;;19.67;100.00
55540;BME280;41384;51.418;7.286;2022-08-01T01:41:44;99882.47;;;19.59;100.00
55540;BME280;41384;51.418;7.286;2022-08-01T01:44:10;99885.34;;;19.42;100.00
55540;BME280;41384;51.418;7.286;2022-08-01T01:46:36;99888.31;;;19.45;100.00
55540;BME280;41384;51.418;7.286;2022-08-01T01:49:03;99882.75;;;19.62;100.00
55540;BME280;41384;51.418;7.286;2022-08-01T01:51:29;99887.28;;;19.67;100.00
55540;BME280;41384;51.418;7.286;2022-08-01T01:53:56;99894.25;;;19.63;100.00
55540;BME280;41384;51.418;7.286;2022-08-01T01:56:23;99891.59;;;19.68;100.00
55540;BME280;41384;51.418;7.286;2022-08-01T01:59:00;99886.75;;;19.65;100.00
55540;BME280;41384;51.418;7.286;2022-08-01T02:01:28;99886.75;;;19.54;100.00
55540;BME280;41384;51.418;7.286;2022-08-01T02:03:56;99895.56;;;19.45;100.00
55540;BME280;41384;51.418;7.286;2022-08-01T02:06:23;99892.59;;;19.46;100.00
55540;BME280;41384;51.418;7.286;2022-08-01T02:08:52;99894.78;;;19.54;100.00
55540;BME280;41384;51.418;7.286;2022-08-01T02:11:19;99880.06;;;19.52;100.00
55540;BME280;41384;51.418;7.286;2022-08-01T02:13:51;99889.94;;;19.46;100.00
55540;BME280;41384;51.418;7.286;2022-08-01T02:16:17;99894.16;;;19.21;100.00
55540;BME280;41384;51.418;7.286;2022-08-01T02:18:44;99884.81;;;19.39;100.00
55540;BME280;41384;51.418;7.286;2022-08-01T02:21:12;99875.97;;;19.23;100.00
55540;BME280;41384;51.418;7.286;2022-08-01T02:23:40;99870.69;;;19.54;100.00
55540;BME280;41384;51.418;7.286;2022-08-01T02:26:09;99882.47;;;19.53;100.00
55540;BME280;41384;51.418;7.286;2022-08-01T02:28:56;99882.13;;;19.34;100.00
55540;BME280;41384;51.418;7.286;2022-08-01T02:31:22;99881.31;;;19.29;100.00
55540;BME280;41384;51.418;7.286;2022-08-01T02:33:57;99887.22;;;19.31;100.00
55540;BME280;41384;51.418;7.286;2022-08-01T02:36:26;99891.50;;;19.37;100.00
55540;BME280;41384;51.418;7.286;2022-08-01T02:38:53;99890.13;;;19.24;100.00
55540;BME280;41384;51.418;7.286;2022-08-01T02:41:20;99883.47;;;19.32;100.00
55540;BME280;41384;51.418;7.286;2022-08-01T02:43:49;99887.22;;;19.31;100.00
55540;BME280;41384;51.418;7.286;2022-08-01T02:46:21;99876.03;;;19.49;100.00
55540;BME280;41384;51.418;7.286;2022-08-01T02:48:50;99881.91;;;19.46;100.00
55540;BME280;41384;51.418;7.286;2022-08-01T02:51:17;99874.44;;;19.53;100.00
55540;BME280;41384;51.418;7.286;2022-08-01T02:53:45;99884.34;;;19.48;100.00
55540;BME280;41384;51.418;7.286;2022-08-01T02:56:11;99873.88;;;19.51;100.00
55540;BME280;41384;51.418;7.286;2022-08-01T02:58:39;99870.16;;;19.63;100.00
55540;BME280;41384;51.418;7.286;2022-08-01T03:01:06;99873.91;;;19.62;100.00
55540;BME280;41384;51.418;7.286;2022-08-01T03:03:33;99880.53;;;19.33;100.00
55540;BME280;41384;51.418;7.286;2022-08-01T03:05:59;99870.66;;;19.44;100.00
55540;BME280;41384;51.418;7.286;2022-08-01T03:08:25;99872.78;;;19.37;100.00
55540;BME280;41384;51.418;7.286;2022-08-01T03:10:52;99874.69;;;19.52;100.00
55540;BME280;41384;51.418;7.286;2022-08-01T03:13:20;99863.94;;;19.42;100.00
55540;BME280;41384;51.418;7.286;2022-08-01T03:15:47;99873.34;;;19.54;100.00
55540;BME280;41384;51.418;7.286;2022-08-01T03:18:13;99876.25;;;19.37;100.00
55540;BME280;41384;51.418;7.286;2022-08-01T03:20:41;99874.41;;;19.48;100.00
55540;BME280;41384;51.418;7.286;2022-08-01T03:23:10;99880.53;;;19.38;100.00
55540;BME280;41384;51.418;7.286;2022-08-01T03:25:39;99878.38;;;19.35;100.00
55540;BME280;41384;51.418;7.286;2022-08-01T03:28:06;99885.63;;;19.40;100.00
55540;BME280;41384;51.418;7.286;2022-08-01T03:30:32;99889.09;;;19.35;100.00
55540;BME280;41384;51.418;7.286;2022-08-01T03:32:58;99898.50;;;19.53;100.00
55540;BME280;41384;51.418;7.286;2022-08-01T03:35:38;99898.25;;;19.50;100.00
55540;BME280;41384;51.418;7.286;2022-08-01T03:38:06;99902.22;;;19.37;100.00
55540;BME280;41384;51.418;7.286;2022-08-01T03:43:07;99896.59;;;19.44;100.00
55540;BME280;41384;51.418;7.286;2022-08-01T03:45:38;99897.94;;;19.41;100.00
55540;BME280;41384;51.418;7.286;2022-08-01T03:48:09;99898.16;;;19.29;100.00
55540;BME280;41384;51.418;7.286;2022-08-01T03:50:36;99898.63;;;19.10;100.00
55540;BME280;41384;51.418;7.286;2022-08-01T03:53:05;99896.81;;;19.16;100.00
55540;BME280;41384;51.418;7.286;2022-08-01T03:55:32;99894.91;;;19.17;100.00
55540;BME280;41384;51.418;7.286;2022-08-01T03:57:59;99894.16;;;19.21;100.00
55540;BME280;41384;51.418;7.286;2022-08-01T04:00:26;99899.22;;;19.28;100.00
55540;BME280;41384;51.418;7.286;2022-08-01T04:02:52;99898.47;;;19.33;100.00
55540;BME280;41384;51.418;7.286;2022-08-01T04:05:18;99895.78;;;19.28;100.00
55540;BME280;41384;51.418;7.286;2022-08-01T04:07:49;99905.94;;;19.31;100.00
55540;BME280;41384;51.418;7.286;2022-08-01T04:10:24;99899.03;;;19.45;100.00
55540;BME280;41384;51.418;7.286;2022-08-01T04:12:50;99910.56;;;19.51;100.00
55540;BME280;41384;51.418;7.286;2022-08-01T04:15:16;99902.78;;;19.44;100.00
55540;BME280;41384;51.418;7.286;2022-08-01T04:17:42;99903.84;;;19.43;100.00
55540;BME280;41384;51.418;7.286;2022-08-01T04:20:07;99906.53;;;19.48;100.00
55540;BME280;41384;51.418;7.286;2022-08-01T04:22:33;99907.59;;;19.42;100.00
55540;BME280;41384;51.418;7.286;2022-08-01T04:25:00;99905.44;;;19.44;100.00
55540;BME280;41384;51.418;7.286;2022-08-01T04:27:29;99908.66;;;19.46;100.00
55540;BME280;41384;51.418;7.286;2022-08-01T04:29:58;99914.53;;;19.33;100.00
55540;BME280;41384;51.418;7.286;2022-08-01T04:32:27;99917.78;;;19.56;100.00
55540;BME280;41384;51.418;7.286;2022-08-01T04:34:56;99919.16;;;19.53;100.00
55540;BME280;41384;51.418;7.286;2022-08-01T04:37:23;99912.19;;;19.52;100.00
55540;BME280;41384;51.418;7.286;2022-08-01T04:39:51;99927.41;;;19.46;100.00
55540;BME280;41384;51.418;7.286;2022-08-01T04:42:18;99921.53;;;19.54;100.00
55540;BME280;41384;51.418;7.286;2022-08-01T04:44:44;99918.84;;;19.44;100.00
55540;BME280;41384;51.418;7.286;2022-08-01T04:47:11;99919.41;;;19.57;100.00
55540;BME280;41384;51.418;7.286;2022-08-01T04:49:37;99928.25;;;19.52;100.00
55540;BME280;41384;51.418;7.286;2022-08-01T04:52:03;99928.50;;;19.56;100.00
55540;BME280;41384;51.418;7.286;2022-08-01T04:54:30;99935.44;;;19.51;100.00
55540;BME280;41384;51.418;7.286;2022-08-01T04:56:57;99933.84;;;19.56;100.00
55540;BME280;41384;51.418;7.286;2022-08-01T04:59:27;99932.00;;;19.56;100.00
55540;BME280;41384;51.418;7.286;2022-08-01T05:04:34;99942.19;;;19.59;100.00
55540;BME280;41384;51.418;7.286;2022-08-01T05:07:00;99944.03;;;19.59;100.00
55540;BME280;41384;51.418;7.286;2022-08-01T05:09:26;99938.13;;;19.51;100.00
55540;BME280;41384;51.418;7.286;2022-08-01T05:11:51;99932.00;;;19.61;100.00
55540;BME280;41384;51.418;7.286;2022-08-01T05:14:16;99937.63;;;19.70;100.00
55540;BME280;41384;51.418;7.286;2022-08-01T05:16:42;99939.53;;;19.64;100.00
55540;BME280;41384;51.418;7.286;2022-08-01T05:19:07;99946.47;;;19.65;100.00
55540;BME280;41384;51.418;7.286;2022-08-01T05:21:33;99938.16;;;19.62;100.00
55540;BME280;41384;51.418;7.286;2022-08-01T05:23:58;99944.06;;;19.69;100.00
55540;BME280;41384;51.418;7.286;2022-08-01T05:26:24;99952.66;;;19.76;100.00
55540;BME280;41384;51.418;7.286;2022-08-01T05:28:49;99953.69;;;19.60;100.00
55540;BME280;41384;51.418;7.286;2022-08-01T05:31:14;99954.22;;;19.67;100.00
55540;BME280;41384;51.418;7.286;2022-08-01T05:33:39;99956.41;;;19.80;100.00
55540;BME280;41384;51.418;7.286;2022-08-01T05:36:05;99955.88;;;19.83;100.00
55540;BME280;41384;51.418;7.286;2022-08-01T05:38:30;99951.06;;;19.86;100.00
55540;BME280;41384;51.418;7.286;2022-08-01T05:40:55;99961.03;;;19.90;100.00
55540;BME280;41384;51.418;7.286;2022-08-01T05:43:21;99961.22;;;19.78;100.00
55540;BME280;41384;51.418;7.286;2022-08-01T05:45:46;99964.97;;;19.82;100.00
55540;BME280;41384;51.418;7.286;2022-08-01T05:48:12;99958.00;;;19.76;100.00
55540;BME280;41384;51.418;7.286;2022-08-01T05:50:37;99967.41;;;19.89;100.00
55540;BME280;41384;51.418;7.286;2022-08-01T05:53:02;99971.41;;;19.81;100.00
55540;BME280;41384;51.418;7.286;2022-08-01T05:55:28;99967.09;;;19.75;100.00
55540;BME280;41384;51.418;7.286;2022-08-01T05:57:53;99969.38;;;20.04;100.00
55540;BME280;41384;51.418;7.286;2022-08-01T06:00:19;99973.09;;;19.98;100.00
55540;BME280;41384;51.418;7.286;2022-08-01T06:02:44;99968.28;;;20.00;100.00
55540;BME280;41384;51.418;7.286;2022-08-01T06:05:10;99969.34;;;19.99;100.00
55540;BME280;41384;51.418;7.286;2022-08-01T06:07:35;99979.81;;;20.06;100.00
55540;BME280;41384;51.418;7.286;2022-08-01T06:10:00;99976.03;;;19.96;100.00
55540;BME280;41384;51.418;7.286;2022-08-01T06:12:26;99972.28;;;19.92;100.00
55540;BME280;41384;51.418;7.286;2022-08-01T06:14:51;99980.25;;;19.77;100.00
55540;BME280;41384;51.418;7.286;2022-08-01T06:17:16;99982.63;;;19.68;100.00
55540;BME280;41384;51.418;7.286;2022-08-01T06:19:41;99977.91;;;19.91;100.00
55540;BME280;41384;51.418;7.286;2022-08-01T06:22:07;99977.06;;;19.85;100.00
55540;BME280;41384;51.418;7.286;2022-08-01T06:24:32;99971.75;;;20.06;100.00
55540;BME280;41384;51.418;7.286;2022-08-01T06:26:57;99973.63;;;19.95;100.00
55540;BME280;41384;51.418;7.286;2022-08-01T06:29:23;99979.97;;;19.73;100.00
55540;BME280;41384;51.418;7.286;2022-08-01T06:31:48;99985.38;;;19.89;100.00
55540;BME280;41384;51.418;7.286;2022-08-01T06:34:13;99982.75;;;20.04;100.00
55540;BME280;41384;51.418;7.286;2022-08-01T06:36:40;99979.28;;;20.24;100.00
55540;BME280;41384;51.418;7.286;2022-08-01T06:39:05;99989.91;;;19.88;100.00
55540;BME280;41384;51.418;7.286;2022-08-01T06:41:30;99981.13;;;19.93;100.00
55540;BME280;41384;51.418;7.286;2022-08-01T06:43:56;99980.81;;;19.89;100.00
55540;BME280;41384;51.418;7.286;2022-08-01T06:46:21;99979.03;;;20.21;100.00
55540;BME280;41384;51.418;7.286;2022-08-01T06:48:46;99981.44;;;20.22;100.00
55540;BME280;41384;51.418;7.286;2022-08-01T06:51:12;99987.91;;;20.47;100.00
55540;BME280;41384;51.418;7.286;2022-08-01T06:53:40;99981.19;;;20.45;100.00
55540;BME280;41384;51.418;7.286;2022-08-01T06:56:06;99978.22;;;20.31;100.00
55540;BME280;41384;51.418;7.286;2022-08-01T06:58:33;99986.28;;;20.46;100.00
55540;BME280;41384;51.418;7.286;2022-08-01T07:01:00;99980.63;;;20.32;100.00
55540;BME280;41384;51.418;7.286;2022-08-01T07:03:25;99989.75;;;20.36;100.00
55540;BME280;41384;51.418;7.286;2022-08-01T07:05:51;99979.84;;;20.52;100.00
55540;BME280;41384;51.418;7.286;2022-08-01T07:08:16;99972.06;;;20.25;100.00
55540;BME280;41384;51.418;7.286;2022-08-01T07:10:41;99976.88;;;20.33;100.00
55540;BME280;41384;51.418;7.286;2022-08-01T07:13:08;99973.41;;;20.59;100.00
55540;BME280;41384;51.418;7.286;2022-08-01T07:15:33;99970.44;;;20.55;100.00
55540;BME280;41384;51.418;7.286;2022-08-01T07:17:58;99970.19;;;20.62;100.00
55540;BME280;41384;51.418;7.286;2022-08-01T07:20:26;99969.34;;;20.71;100.00
55540;BME280;41384;51.418;7.286;2022-08-01T07:22:51;99971.25;;;20.71;100.00
55540;BME280;41384;51.418;7.286;2022-08-01T07:25:17;99975.03;;;20.54;100.00
55540;BME280;41384;51.418;7.286;2022-08-01T07:27:42;99971.25;;;20.61;100.00
55540;BME280;41384;51.418;7.286;2022-08-01T07:30:08;99977.16;;;20.37;100.00
55540;BME280;41384;51.418;7.286;2022-08-01T07:32:33;99980.63;;;20.37;100.00
55540;BME280;41384;51.418;7.286;2022-08-01T07:35:00;99970.44;;;20.24;100.00
55540;BME280;41384;51.418;7.286;2022-08-01T07:37:25;99978.19;;;20.15;100.00
55540;BME280;41384;51.418;7.286;2022-08-01T07:39:50;99976.88;;;20.49;100.00
55540;BME280;41384;51.418;7.286;2022-08-01T07:42:15;99981.44;;;20.27;100.00
55540;BME280;41384;51.418;7.286;2022-08-01T07:44:41;99980.63;;;20.63;100.00
55540;BME280;41384;51.418;7.286;2022-08-01T07:47:07;99983.06;;;20.60;100.00
55540;BME280;41384;51.418;7.286;2022-08-01T07:49:33;99978.47;;;20.76;100.00
55540;BME280;41384;51.418;7.286;2022-08-01T07:51:58;99986.81;;;20.53;100.00
55540;BME280;41384;51.418;7.286;2022-08-01T07:54:23;99988.13;;;20.66;100.00
55540;BME280;41384;51.418;7.286;2022-08-01T07:56:50;99986.25;;;20.72;100.00
55540;BME280;41384;51.418;7.286;2022-08-01T07:59:16;99994.31;;;20.62;100.00
55540;BME280;41384;51.418;7.286;2022-08-01T08:01:41;99992.16;;;20.74;100.00
55540;BME280;41384;51.418;7.286;2022-08-01T08:04:07;99998.31;;;20.64;100.00
55540;BME280;41384;51.418;7.286;2022-08-01T08:06:32;99995.94;;;20.58;100.00
55540;BME280;41384;51.418;7.286;2022-08-01T08:08:57;99996.19;;;20.61;100.00
55540;BME280;41384;51.418;7.286;2022-08-01T08:11:23;100001.06;;;20.80;100.00
55540;BME280;41384;51.418;7.286;2022-08-01T08:13:48;99993.50;;;20.97;100.00
55540;BME280;41384;51.418;7.286;2022-08-01T08:16:13;99997.00;;;20.51;100.00
55540;BME280;41384;51.418;7.286;2022-08-01T08:18:39;99995.94;;;20.78;100.00
55540;BME280;41384;51.418;7.286;2022-08-01T08:21:04;99994.56;;;20.76;100.00
55540;BME280;41384;51.418;7.286;2022-08-01T08:23:29;99990.56;;;20.89;100.00
55540;BME280;41384;51.418;7.286;2022-08-01T08:26:13;99993.53;;;20.92;100.00
55540;BME280;41384;51.418;7.286;2022-08-01T08:28:39;99999.94;;;21.07;100.00
55540;BME280;41384;51.418;7.286;2022-08-01T08:31:04;100004.38;;;21.42;99.20
55540;BME280;41384;51.418;7.286;2022-08-01T08:33:29;100001.78;;;21.06;100.00
55540;BME280;41384;51.418;7.286;2022-08-01T08:35:55;99997.97;;;21.38;99.69
55540;BME280;41384;51.418;7.286;2022-08-01T08:38:20;100004.19;;;21.23;100.00
55540;BME280;41384;51.418;7.286;2022-08-01T08:40:45;100007.13;;;21.17;100.00
55540;BME280;41384;51.418;7.286;2022-08-01T08:43:11;100011.19;;;21.04;100.00
55540;BME280;41384;51.418;7.286;2022-08-01T08:45:37;100017.06;;;21.16;100.00
55540;BME280;41384;51.418;7.286;2022-08-01T08:48:05;100010.06;;;21.25;100.00
55540;BME280;41384;51.418;7.286;2022-08-01T08:50:31;100015.88;;;21.69;97.16
55540;BME280;41384;51.418;7.286;2022-08-01T08:52:59;100011.00;;;21.76;96.59
55540;BME280;41384;51.418;7.286;2022-08-01T08:55:26;100020.16;;;21.70;95.09
55540;BME280;41384;51.418;7.286;2022-08-01T08:57:54;100009.53;;;21.28;95.71
55540;BME280;41384;51.418;7.286;2022-08-01T09:00:19;100017.75;;;21.63;93.46
55540;BME280;41384;51.418;7.286;2022-08-01T09:02:46;100014.88;;;21.34;95.01
55540;BME280;41384;51.418;7.286;2022-08-01T09:05:14;100023.44;;;21.46;94.54
55540;BME280;41384;51.418;7.286;2022-08-01T09:07:40;100022.91;;;21.44;94.87
55540;BME280;41384;51.418;7.286;2022-08-01T09:10:07;100016.84;;;21.89;91.79
55540;BME280;41384;51.418;7.286;2022-08-01T09:12:34;100023.84;;;21.84;90.68
55540;BME280;41384;51.418;7.286;2022-08-01T09:15:01;100031.66;;;21.81;89.97
55540;BME280;41384;51.418;7.286;2022-08-01T09:17:26;100024.97;;;21.73;91.36
55540;BME280;41384;51.418;7.286;2022-08-01T09:19:54;100031.97;;;21.74;90.72
55540;BME280;41384;51.418;7.286;2022-08-01T09:22:22;100029.34;;;21.38;92.21
55540;BME280;41384;51.418;7.286;2022-08-01T09:25:04;100037.94;;;21.45;94.25
55540;BME280;41384;51.418;7.286;2022-08-01T09:27:30;100039.56;;;21.36;92.01
55540;BME280;41384;51.418;7.286;2022-08-01T09:30:16;100037.66;;;21.47;92.74
55540;BME280;41384;51.418;7.286;2022-08-01T09:35:30;100042.94;;;21.78;91.66
55540;BME280;41384;51.418;7.286;2022-08-01T09:40:51;100039.03;;;22.05;86.19
55540;BME280;41384;51.418;7.286;2022-08-01T09:43:18;100042.88;;;21.93;86.27
55540;BME280;41384;51.418;7.286;2022-08-01T09:45:44;100053.81;;;22.07;84.98
55540;BME280;41384;51.418;7.286;2022-08-01T09:48:10;100050.94;;;21.88;82.69
55540;BME280;41384;51.418;7.286;2022-08-01T09:50:45;100054.25;;;21.69;87.44
55540;BME280;41384;51.418;7.286;2022-08-01T09:53:11;100053.88;;;21.97;88.23
55540;BME280;41384;51.418;7.286;2022-08-01T09:55:37;100054.41;;;21.99;86.66
55540;BME280;41384;51.418;7.286;2022-08-01T09:58:04;100055.13;;;22.15;86.36
55540;BME280;41384;51.418;7.286;2022-08-01T10:00:30;100054.66;;;22.48;82.82
55540;BME280;41384;51.418;7.286;2022-08-01T10:02:56;100056.63;;;22.32;83.23
55540;BME280;41384;51.418;7.286;2022-08-01T10:05:32;100053.00;;;22.52;80.74
55540;BME280;41384;51.418;7.286;2022-08-01T10:08:01;100066.28;;;22.78;77.97
55540;BME280;41384;51.418;7.286;2022-08-01T10:10:28;100054.34;;;22.54;80.10
55540;BME280;41384;51.418;7.286;2022-08-01T10:12:55;100053.91;;;22.77;77.24
55540;BME280;41384;51.418;7.286;2022-08-01T10:15:20;100048.09;;;22.64;78.93
55540;BME280;41384;51.418;7.286;2022-08-01T10:17:52;100040.59;;;22.91;76.44
55540;BME280;41384;51.418;7.286;2022-08-01T10:20:24;100047.22;;;23.03;77.58
55540;BME280;41384;51.418;7.286;2022-08-01T10:22:53;100050.19;;;23.31;77.23
55540;BME280;41384;51.418;7.286;2022-08-01T10:25:20;100045.59;;;23.32;76.99
55540;BME280;41384;51.418;7.286;2022-08-01T10:27:48;100046.78;;;23.21;76.54
55540;BME280;41384;51.418;7.286;2022-08-01T10:30:14;100051.63;;;23.48;75.86
55540;BME280;41384;51.418;7.286;2022-08-01T10:32:41;100041.94;;;23.47;73.26
55540;BME280;41384;51.418;7.286;2022-08-01T10:35:09;100047.22;;;23.33;72.96
55540;BME280;41384;51.418;7.286;2022-08-01T10:37:41;100050.88;;;23.13;74.88
55540;BME280;41384;51.418;7.286;2022-08-01T10:40:07;100057.00;;;22.94;73.07
55540;BME280;41384;51.418;7.286;2022-08-01T10:42:33;100060.03;;;23.12;73.26
55540;BME280;41384;51.418;7.286;2022-08-01T10:44:59;100051.41;;;23.15;74.00
55540;BME280;41384;51.418;7.286;2022-08-01T10:47:28;100053.56;;;23.13;72.52
55540;BME280;41384;51.418;7.286;2022-08-01T10:50:04;100056.06;;;23.09;72.08
55540;BME280;41384;51.418;7.286;2022-08-01T10:52:32;100055.44;;;22.88;73.03
55540;BME280;41384;51.418;7.286;2022-08-01T10:55:05;100061.44;;;22.80;75.00
55540;BME280;41384;51.418;7.286;2022-08-01T10:57:47;100058.78;;;22.74;74.92
55540;BME280;41384;51.418;7.286;2022-08-01T11:00:20;100053.63;;;22.78;75.16
55540;BME280;41384;51.418;7.286;2022-08-01T11:03:00;100053.81;;;22.87;74.60
55540;BME280;41384;51.418;7.286;2022-08-01T11:05:28;100047.56;;;22.92;74.93
55540;BME280;41384;51.418;7.286;2022-08-01T11:07:55;100050.94;;;23.37;72.59
55540;BME280;41384;51.418;7.286;2022-08-01T11:10:40;100054.41;;;23.38;73.42
55540;BME280;41384;51.418;7.286;2022-08-01T11:13:08;100058.19;;;23.37;74.19
55540;BME280;41384;51.418;7.286;2022-08-01T11:15:37;100057.63;;;23.40;74.81
55540;BME280;41384;51.418;7.286;2022-08-01T11:18:29;100052.25;;;23.40;74.89
55540;BME280;41384;51.418;7.286;2022-08-01T11:20:57;100052.34;;;23.29;74.54
55540;BME280;41384;51.418;7.286;2022-08-01T11:23:23;100052.94;;;23.21;75.54
55540;BME280;41384;51.418;7.286;2022-08-01T11:30:46;100063.19;;;23.24;74.67
55540;BME280;41384;51.418;7.286;2022-08-01T11:33:13;100065.59;;;23.26;75.89
55540;BME280;41384;51.418;7.286;2022-08-01T11:41:10;100049.84;;;23.63;72.92
55540;BME280;41384;51.418;7.286;2022-08-01T11:43:58;100049.16;;;23.52;72.64
55540;BME280;41384;51.418;7.286;2022-08-01T11:46:52;100048.03;;;23.77;70.41
55540;BME280;41384;51.418;7.286;2022-08-01T11:52:07;100040.78;;;23.97;68.73
55540;BME280;41384;51.418;7.286;2022-08-01T11:54:35;100044.66;;;23.66;67.95
55540;BME280;41384;51.418;7.286;2022-08-01T11:57:04;100046.34;;;23.62;67.07
55540;BME280;41384;51.418;7.286;2022-08-01T11:59:40;100046.13;;;23.78;67.55
55540;BME280;41384;51.418;7.286;2022-08-01T12:02:16;100044.41;;;23.43;70.95
55540;BME280;41384;51.418;7.286;2022-08-01T12:04:47;100056.84;;;23.39;72.18
55540;BME280;41384;51.418;7.286;2022-08-01T12:07:17;100059.91;;;23.27;69.89
55540;BME280;41384;51.418;7.286;2022-08-01T12:09:42;100056.00;;;23.44;69.09
55540;BME280;41384;51.418;7.286;2022-08-01T12:12:09;100057.69;;;23.35;70.50
55540;BME280;41384;51.418;7.286;2022-08-01T12:14:35;100056.00;;;23.44;71.27
55540;BME280;41384;51.418;7.286;2022-08-01T12:17:01;100051.44;;;23.64;71.51
55540;BME280;41384;51.418;7.286;2022-08-01T12:19:26;100055.81;;;23.35;72.33
55540;BME280;41384;51.418;7.286;2022-08-01T12:22:11;100055.28;;;23.57;70.16
55540;BME280;41384;51.418;7.286;2022-08-01T12:24:38;100060.38;;;23.83;69.93
55540;BME280;41384;51.418;7.286;2022-08-01T12:27:05;100069.31;;;23.79;68.56
55540;BME280;41384;51.418;7.286;2022-08-01T12:29:41;100053.69;;;24.00;67.15
55540;BME280;41384;51.418;7.286;2022-08-01T12:32:23;100067.91;;;24.25;66.84
55540;BME280;41384;51.418;7.286;2022-08-01T12:34:49;100058.94;;;24.48;64.02
55540;BME280;41384;51.418;7.286;2022-08-01T12:37:16;100052.47;;;24.30;66.55
55540;BME280;41384;51.418;7.286;2022-08-01T12:39:41;100058.88;;;24.15;68.27
55540;BME280;41384;51.418;7.286;2022-08-01T12:42:07;100060.91;;;24.43;68.40
55540;BME280;41384;51.418;7.286;2022-08-01T12:44:36;100051.41;;;24.98;64.25
55540;BME280;41384;51.418;7.286;2022-08-01T12:47:03;100061.59;;;24.87;64.15
55540;BME280;41384;51.418;7.286;2022-08-01T12:49:31;100055.50;;;24.81;63.77
55540;BME280;41384;51.418;7.286;2022-08-01T12:51:57;100053.56;;;24.82;64.52
55540;BME280;41384;51.418;7.286;2022-08-01T12:54:22;100057.00;;;24.35;65.90
55540;BME280;41384;51.418;7.286;2022-08-01T12:56:50;100057.97;;;24.77;64.63
55540;BME280;41384;51.418;7.286;2022-08-01T12:59:26;100062.91;;;25.03;61.71
55540;BME280;41384;51.418;7.286;2022-08-01T13:01:53;100064.09;;;24.83;61.98
55540;BME280;41384;51.418;7.286;2022-08-01T13:04:19;100055.31;;;24.72;61.50
55540;BME280;41384;51.418;7.286;2022-08-01T13:06:44;100051.97;;;24.81;61.83
55540;BME280;41384;51.418;7.286;2022-08-01T13:09:10;100059.38;;;24.56;63.46
55540;BME280;41384;51.418;7.286;2022-08-01T13:11:37;100054.91;;;24.65;63.08
55540;BME280;41384;51.418;7.286;2022-08-01T13:14:02;100043.19;;;24.37;63.94
55540;BME280;41384;51.418;7.286;2022-08-01T13:16:28;100062.59;;;24.72;63.50
55540;BME280;41384;51.418;7.286;2022-08-01T13:18:56;100058.47;;;24.60;63.12
55540;BME280;41384;51.418;7.286;2022-08-01T13:21:26;100052.97;;;24.13;66.87
55540;BME280;41384;51.418;7.286;2022-08-01T13:24:09;100069.53;;;24.07;66.53
55540;BME280;41384;51.418;7.286;2022-08-01T13:29:08;100057.59;;;23.88;67.78